createdAt,value
2019-04-14T00:00:44.938Z,9.45
2019-04-14T00:03:34.941Z,9.44
2019-04-14T00:06:07.609Z,9.42
2019-04-14T00:08:39.486Z,9.35
2019-04-14T00:11:11.129Z,9.33
2019-04-14T00:13:43.513Z,9.33
2019-04-14T00:16:16.530Z,9.36
2019-04-14T00:18:49.093Z,9.38
2019-04-14T00:21:21.533Z,9.35
2019-04-14T00:23:54.367Z,9.31
2019-04-14T00:26:29.318Z,9.25
2019-04-14T00:29:02.518Z,9.22
2019-04-14T00:31:34.926Z,9.19
2019-04-14T00:34:25.288Z,9.15
2019-04-14T00:37:01.339Z,9.11
2019-04-14T00:39:46.950Z,9.06
2019-04-14T00:42:21.796Z,9.05
2019-04-14T00:44:55.941Z,9.02
2019-04-14T00:47:29.170Z,9.01
2019-04-14T00:50:01.651Z,9.01
2019-04-14T00:52:34.039Z,9.01
2019-04-14T00:55:07.631Z,9.01
2019-04-14T00:57:39.817Z,9.03
2019-04-14T01:00:12.795Z,9.05
2019-04-14T01:02:45.253Z,9.04
2019-04-14T01:05:19.597Z,8.99
2019-04-14T01:07:52.344Z,8.94
2019-04-14T01:10:25.925Z,8.90
2019-04-14T01:13:00.529Z,8.92
2019-04-14T01:15:46.686Z,8.92
2019-04-14T01:18:09.969Z,8.89
2019-04-14T01:20:42.747Z,8.83
2019-04-14T01:23:15.200Z,8.81
2019-04-14T01:25:47.730Z,8.79
2019-04-14T01:28:20.127Z,8.80
2019-04-14T01:30:52.304Z,8.78
2019-04-14T01:33:31.484Z,8.78
2019-04-14T01:36:11.079Z,8.73
2019-04-14T01:38:51.281Z,8.75
2019-04-14T01:41:23.926Z,8.77
2019-04-14T01:43:56.054Z,8.78
2019-04-14T01:46:29.978Z,8.81
2019-04-14T01:49:01.038Z,8.82
2019-04-14T01:51:35.196Z,8.83
2019-04-14T01:54:17.862Z,8.82
2019-04-14T01:56:58.111Z,8.81
2019-04-14T01:59:33.004Z,8.80
2019-04-14T02:02:07.534Z,8.78
2019-04-14T02:04:40.411Z,8.73
2019-04-14T02:07:12.323Z,8.71
2019-04-14T02:09:46.866Z,8.71
2019-04-14T02:12:19.214Z,8.68
2019-04-14T02:14:51.653Z,8.66
2019-04-14T02:17:24.200Z,8.65
2019-04-14T02:19:56.780Z,8.64
2019-04-14T02:22:29.097Z,8.62
2019-04-14T02:25:01.431Z,8.61
2019-04-14T02:27:34.474Z,8.61
2019-04-14T02:30:10.161Z,8.60
2019-04-14T02:33:11.040Z,8.57
2019-04-14T02:35:50.602Z,8.54
2019-04-14T02:38:29.127Z,8.49
2019-04-14T02:40:56.047Z,8.46
2019-04-14T02:43:30.243Z,8.43
2019-04-14T02:51:10.830Z,8.43
2019-04-14T03:01:27.019Z,8.45
2019-04-14T03:03:50.672Z,8.43
2019-04-14T03:06:18.074Z,8.43
2019-04-14T03:09:04.477Z,8.40
2019-04-14T03:14:07.587Z,8.42
2019-04-14T03:17:05.673Z,8.35
2019-04-14T03:19:27.269Z,8.32
2019-04-14T03:22:12.284Z,8.31
2019-04-14T03:24:31.610Z,8.31
2019-04-14T03:27:13.533Z,8.30
2019-04-14T03:30:05.059Z,8.27
2019-04-14T03:35:07.973Z,8.20
2019-04-14T03:40:08.453Z,8.10
2019-04-14T03:45:14.409Z,8.08
2019-04-14T03:47:46.027Z,8.05
2019-04-14T03:52:59.620Z,8.04
2019-04-14T03:55:16.047Z,8.09
2019-04-14T03:57:34.569Z,8.09
2019-04-14T04:00:07.479Z,8.06
2019-04-14T04:02:49.830Z,8.03
2019-04-14T04:05:41.309Z,8.00
2019-04-14T04:08:13.647Z,7.98
2019-04-14T04:10:48.948Z,7.97
2019-04-14T04:13:21.579Z,7.97
2019-04-14T04:15:58.335Z,8.00
2019-04-14T04:18:44.219Z,8.05
2019-04-14T04:21:20.540Z,8.06
2019-04-14T04:24:06.525Z,8.06
2019-04-14T04:26:45.148Z,8.01
2019-04-14T04:29:33.243Z,7.98
2019-04-14T04:32:12.221Z,7.96
2019-04-14T04:34:51.245Z,8.00
2019-04-14T04:37:41.261Z,7.98
2019-04-14T04:40:15.968Z,7.95
2019-04-14T04:42:48.855Z,7.96
2019-04-14T04:45:25.689Z,7.98
2019-04-14T04:48:00.224Z,8.00
2019-04-14T04:50:37.027Z,8.02
2019-04-14T04:53:15.767Z,8.01
2019-04-14T04:55:50.739Z,7.99
2019-04-14T04:58:28.318Z,8.02
2019-04-14T05:01:05.668Z,7.99
2019-04-14T05:03:41.142Z,8.00
2019-04-14T05:06:51.008Z,8.04
2019-04-14T05:09:36.696Z,8.12
2019-04-14T05:12:32.637Z,8.14
2019-04-14T05:15:24.757Z,8.20
2019-04-14T05:17:56.526Z,8.24
2019-04-14T05:20:29.204Z,8.26
2019-04-14T05:23:01.852Z,8.31
2019-04-14T05:25:34.137Z,8.32
2019-04-14T05:28:06.988Z,8.30
2019-04-14T05:30:41.667Z,8.33
2019-04-14T05:33:14.147Z,8.29
2019-04-14T05:35:46.690Z,8.28
2019-04-14T05:38:26.806Z,8.34
2019-04-14T05:41:04.736Z,8.34
2019-04-14T05:43:46.699Z,8.37
2019-04-14T05:46:25.253Z,8.41
2019-04-14T05:49:04.976Z,8.47
2019-04-14T05:51:37.236Z,8.49
2019-04-14T05:54:10.723Z,8.54
2019-04-14T05:56:43.144Z,8.60
2019-04-14T05:59:15.616Z,8.64
2019-04-14T06:01:49.632Z,8.72
2019-04-14T06:04:22.454Z,8.79
2019-04-14T06:06:54.598Z,8.75
2019-04-14T06:09:31.845Z,8.69
2019-04-14T06:12:03.571Z,8.72
2019-04-14T06:14:35.621Z,8.74
2019-04-14T06:17:07.281Z,8.77
2019-04-14T06:19:40.635Z,8.75
2019-04-14T06:22:12.214Z,8.75
2019-04-14T06:24:44.646Z,8.77
2019-04-14T06:27:16.214Z,8.81
2019-04-14T06:29:49.666Z,8.87
2019-04-14T06:32:36.208Z,8.95
2019-04-14T06:35:12.093Z,8.90
2019-04-14T06:37:51.198Z,8.94
2019-04-14T06:40:24.390Z,8.96
2019-04-14T06:42:57.440Z,9.05
2019-04-14T06:45:29.490Z,9.08
2019-04-14T06:48:02.267Z,8.95
2019-04-14T06:50:34.226Z,8.92
2019-04-14T06:53:07.221Z,8.97
2019-04-14T06:55:40.157Z,8.99
2019-04-14T06:58:16.063Z,9.04
2019-04-14T07:00:48.822Z,9.01
2019-04-14T07:03:21.988Z,9.07
2019-04-14T07:05:54.477Z,9.11
2019-04-14T07:08:29.938Z,9.14
2019-04-14T07:11:01.772Z,9.19
2019-04-14T07:13:34.677Z,9.22
2019-04-14T07:16:06.257Z,9.20
2019-04-14T07:18:38.908Z,9.21
2019-04-14T07:21:12.765Z,9.29
2019-04-14T07:23:47.150Z,9.36
2019-04-14T07:26:17.733Z,9.41
2019-04-14T07:28:58.505Z,9.36
2019-04-14T07:31:48.604Z,9.44
2019-04-14T07:34:43.628Z,9.29
2019-04-14T07:37:40.768Z,9.38
2019-04-14T07:40:26.331Z,9.36
2019-04-14T07:43:32.803Z,9.40
2019-04-14T07:46:26.351Z,9.26
2019-04-14T07:49:13.513Z,9.29
2019-04-14T07:52:02.627Z,9.46
2019-04-14T07:54:48.612Z,9.50
2019-04-14T07:57:52.233Z,9.52
2019-04-14T08:00:39.587Z,9.44
2019-04-14T08:03:29.179Z,9.43
2019-04-14T08:06:01.231Z,9.38
2019-04-14T08:08:34.219Z,9.28
2019-04-14T08:11:07.647Z,9.29
2019-04-14T08:13:40.643Z,9.41
2019-04-14T08:16:15.372Z,9.31
2019-04-14T08:18:47.871Z,9.19
2019-04-14T08:21:29.602Z,9.21
2019-04-14T08:24:01.186Z,9.22
2019-04-14T08:26:38.366Z,9.22
2019-04-14T08:29:10.005Z,9.28
2019-04-14T08:31:41.663Z,9.32
2019-04-14T08:34:13.256Z,9.43
2019-04-14T08:36:55.200Z,9.45
2019-04-14T08:39:23.045Z,9.54
2019-04-14T08:42:01.901Z,9.64
2019-04-14T08:44:49.246Z,9.61
2019-04-14T08:47:30.020Z,9.62
2019-04-14T08:50:18.984Z,9.64
2019-04-14T08:52:57.588Z,9.57
2019-04-14T08:55:34.160Z,9.69
2019-04-14T08:58:13.501Z,9.60
2019-04-14T09:01:01.677Z,9.53
2019-04-14T09:03:47.643Z,9.50
2019-04-14T09:06:20.832Z,9.49
2019-04-14T09:08:56.968Z,9.45
2019-04-14T09:11:34.254Z,9.42
2019-04-14T09:14:05.855Z,9.42
2019-04-14T09:16:38.884Z,9.41
2019-04-14T09:19:10.365Z,9.40
2019-04-14T09:21:43.735Z,9.45
2019-04-14T09:24:16.499Z,9.59
2019-04-14T09:26:48.346Z,9.60
2019-04-14T09:29:20.079Z,9.65
2019-04-14T09:31:52.916Z,9.69
2019-04-14T09:34:28.577Z,9.74
2019-04-14T09:37:02.577Z,9.94
2019-04-14T09:39:34.148Z,10.02
2019-04-14T09:42:05.753Z,10.20
2019-04-14T09:44:43.286Z,10.49
2019-04-14T09:47:15.842Z,10.41
2019-04-14T09:49:53.866Z,10.52
2019-04-14T09:52:35.882Z,10.24
2019-04-14T09:55:13.423Z,10.32
2019-04-14T09:57:44.971Z,10.44
2019-04-14T10:00:18.474Z,10.38
2019-04-14T10:02:52.120Z,10.35
2019-04-14T10:05:23.901Z,10.30
2019-04-14T10:07:55.468Z,10.35
2019-04-14T10:10:27.351Z,10.31
2019-04-14T10:12:58.945Z,10.28
2019-04-14T10:15:32.024Z,10.34
2019-04-14T10:18:03.648Z,10.34
2019-04-14T10:20:35.866Z,10.23
2019-04-14T10:23:09.674Z,10.13
2019-04-14T10:25:43.147Z,10.12
2019-04-14T10:28:15.238Z,10.12
2019-04-14T10:30:48.233Z,10.18
2019-04-14T10:33:19.997Z,10.20
2019-04-14T10:35:53.131Z,10.17
2019-04-14T10:38:25.176Z,10.21
2019-04-14T10:40:56.897Z,10.09
2019-04-14T10:43:28.703Z,10.13
2019-04-14T10:46:00.502Z,10.16
2019-04-14T10:48:43.175Z,10.13
2019-04-14T10:51:29.908Z,10.16
2019-04-14T10:53:58.950Z,10.08
2019-04-14T10:56:30.284Z,10.04
2019-04-14T10:59:03.412Z,10.08
2019-04-14T11:01:35.531Z,10.18
2019-04-14T11:04:08.113Z,10.15
2019-04-14T11:06:44.426Z,10.14
2019-04-14T11:09:18.439Z,10.18
2019-04-14T11:11:51.316Z,10.26
2019-04-14T11:14:28.571Z,10.23
2019-04-14T11:17:01.676Z,10.39
2019-04-14T11:19:37.908Z,10.50
2019-04-14T11:22:30.242Z,10.35
2019-04-14T11:25:21.539Z,10.44
2019-04-14T11:27:55.679Z,10.56
2019-04-14T11:30:31.548Z,10.33
2019-04-14T11:33:12.078Z,10.27
2019-04-14T11:35:49.315Z,10.29
2019-04-14T11:38:35.089Z,10.29
2019-04-14T11:41:14.999Z,10.30
2019-04-14T11:43:51.032Z,10.22
2019-04-14T11:46:37.581Z,10.27
2019-04-14T11:49:15.457Z,10.27
2019-04-14T11:52:01.713Z,10.26
2019-04-14T11:54:50.097Z,10.30
2019-04-14T11:57:17.826Z,10.34
2019-04-14T12:00:10.650Z,10.29
2019-04-14T12:02:50.715Z,10.27
2019-04-14T12:05:44.240Z,10.35
2019-04-14T12:08:20.220Z,10.32
2019-04-14T12:11:09.727Z,10.28
2019-04-14T12:13:48.990Z,10.34
2019-04-14T12:16:22.771Z,10.34
2019-04-14T12:18:56.985Z,10.36
2019-04-14T12:21:28.659Z,10.40
2019-04-14T12:24:00.343Z,10.34
2019-04-14T12:26:32.366Z,10.27
2019-04-14T12:29:06.647Z,10.28
2019-04-14T12:31:39.410Z,10.20
2019-04-14T12:34:13.788Z,10.19
2019-04-14T12:36:51.284Z,10.24
2019-04-14T12:39:27.467Z,10.19
2019-04-14T12:42:15.677Z,10.19
2019-04-14T12:44:52.143Z,10.19
2019-04-14T12:50:41.328Z,10.27
2019-04-14T12:53:15.514Z,10.29
2019-04-14T12:55:47.135Z,10.30
2019-04-14T12:58:20.286Z,10.30
2019-04-14T13:00:58.662Z,10.31
2019-04-14T13:03:31.749Z,10.27
2019-04-14T13:06:16.459Z,10.33
2019-04-14T13:08:54.805Z,10.32
2019-04-14T13:11:47.380Z,10.36
2019-04-14T13:14:21.927Z,10.35
2019-04-14T13:17:11.523Z,10.37
2019-04-14T13:19:53.118Z,10.40
2019-04-14T13:22:34.253Z,10.46
2019-04-14T13:25:14.334Z,10.47
2019-04-14T13:27:49.807Z,10.44
2019-04-14T13:30:27.652Z,10.46
2019-04-14T13:33:00.434Z,10.40
2019-04-14T13:35:32.723Z,10.36
2019-04-14T13:38:06.194Z,10.31
2019-04-14T13:40:40.186Z,10.32
2019-04-14T13:43:13.446Z,10.37
2019-04-14T13:45:46.607Z,10.41
2019-04-14T13:48:21.073Z,10.39
2019-04-14T13:50:55.186Z,10.38
2019-04-14T13:53:27.343Z,10.37
2019-04-14T13:55:59.175Z,10.37
2019-04-14T13:58:30.768Z,10.35
2019-04-14T14:01:02.486Z,10.36
2019-04-14T14:03:35.311Z,10.36
2019-04-14T14:06:07.133Z,10.36
2019-04-14T14:08:42.720Z,10.37
2019-04-14T14:11:16.474Z,10.31
2019-04-14T14:14:02.012Z,10.29
2019-04-14T14:16:38.395Z,10.30
2019-04-14T14:19:20.391Z,10.26
2019-04-14T14:21:54.796Z,10.23
2019-04-14T14:24:33.979Z,10.24
2019-04-14T14:27:07.111Z,10.23
2019-04-14T14:29:39.441Z,10.21
2019-04-14T14:32:16.734Z,10.23
2019-04-14T14:34:51.166Z,10.22
2019-04-14T14:37:22.760Z,10.17
2019-04-14T14:39:54.353Z,10.15
2019-04-14T14:42:26.302Z,10.13
2019-04-14T14:45:16.376Z,10.13
2019-04-14T14:47:49.663Z,10.12
2019-04-14T14:50:23.553Z,10.10
2019-04-14T14:52:57.110Z,10.10
2019-04-14T14:55:31.873Z,10.09
2019-04-14T14:58:06.138Z,10.07
2019-04-14T15:00:48.953Z,10.07
2019-04-14T15:03:28.177Z,10.05
2019-04-14T15:06:05.200Z,10.05
2019-04-14T15:08:39.777Z,10.04
2019-04-14T15:11:14.156Z,10.03
2019-04-14T15:14:22.707Z,10.03
2019-04-14T15:17:01.228Z,10.05
2019-04-14T15:19:34.749Z,10.04
2019-04-14T15:22:06.366Z,10.02
2019-04-14T15:24:39.429Z,9.98
2019-04-14T15:27:11.045Z,9.96
2019-04-14T15:29:42.652Z,9.96
2019-04-14T15:32:15.070Z,9.94
2019-04-14T15:34:50.301Z,9.93
2019-04-14T15:37:22.301Z,9.93
2019-04-14T15:39:53.909Z,9.91
2019-04-14T15:42:26.381Z,9.90
2019-04-14T15:45:00.927Z,9.88
2019-04-14T15:47:33.837Z,9.85
2019-04-14T15:50:10.005Z,9.83
2019-04-14T15:52:40.889Z,9.81
2019-04-14T15:55:17.517Z,9.78
2019-04-14T15:58:04.473Z,9.77
2019-04-14T16:00:43.211Z,9.71
2019-04-14T16:03:24.114Z,9.71
2019-04-14T16:06:18.480Z,9.72
2019-04-14T16:08:58.292Z,9.69
2019-04-14T16:11:49.193Z,9.62
2019-04-14T16:14:30.692Z,9.58
2019-04-14T16:17:14.964Z,9.51
2019-04-14T16:19:49.273Z,9.46
2019-04-14T16:22:22.352Z,9.42
2019-04-14T16:24:54.114Z,9.40
2019-04-14T16:27:31.065Z,9.37
2019-04-14T16:30:07.237Z,9.35
2019-04-14T16:32:52.848Z,9.35
2019-04-14T16:35:27.713Z,9.31
2019-04-14T16:38:04.855Z,9.27
2019-04-14T16:45:34.833Z,9.21
2019-04-14T16:48:08.428Z,9.20
2019-04-14T16:50:40.970Z,9.18
2019-04-14T16:53:28.916Z,9.15
2019-04-14T16:56:02.129Z,9.16
2019-04-14T16:58:38.429Z,9.11
2019-04-14T17:01:17.918Z,9.16
2019-04-14T17:03:55.345Z,9.14
2019-04-14T17:06:31.014Z,9.13
2019-04-14T17:09:03.391Z,9.14
2019-04-14T17:11:36.657Z,9.14
2019-04-14T17:14:20.786Z,9.14
2019-04-14T17:16:54.137Z,9.14
2019-04-14T17:19:30.299Z,9.13
2019-04-14T17:22:06.423Z,9.12
2019-04-14T17:24:56.174Z,9.08
2019-04-14T17:27:35.263Z,9.03
2019-04-14T17:30:34.432Z,8.99
2019-04-14T17:33:14.022Z,8.96
2019-04-14T17:35:57.340Z,8.94
2019-04-14T17:38:36.176Z,8.90
2019-04-14T17:41:21.805Z,8.89
2019-04-14T17:44:11.831Z,8.88
2019-04-14T17:46:47.727Z,8.85
2019-04-14T17:49:25.569Z,8.81
2019-04-14T17:52:29.021Z,8.80
2019-04-14T17:55:06.343Z,8.81
2019-04-14T17:57:56.190Z,8.77
2019-04-14T18:00:48.124Z,8.78
2019-04-14T18:03:36.090Z,8.76
2019-04-14T18:06:11.957Z,8.76
2019-04-14T18:08:57.615Z,8.75
2019-04-14T18:11:33.443Z,8.77
2019-04-14T18:14:09.554Z,8.70
2019-04-14T18:16:48.894Z,8.68
2019-04-14T18:19:22.386Z,8.67
2019-04-14T18:21:56.146Z,8.67
2019-04-14T18:24:41.283Z,8.67
2019-04-14T18:27:02.910Z,8.64
2019-04-14T18:29:40.044Z,8.62
2019-04-14T18:32:14.860Z,8.59
2019-04-14T18:35:08.300Z,8.57
2019-04-14T18:37:43.758Z,8.54
2019-04-14T18:40:17.022Z,8.50
2019-04-14T18:42:55.387Z,8.45
2019-04-14T18:45:33.120Z,8.39
2019-04-14T18:48:09.355Z,8.35
2019-04-14T18:50:43.444Z,8.29
2019-04-14T18:53:26.022Z,8.27
2019-04-14T18:56:05.769Z,8.25
2019-04-14T18:58:41.893Z,8.20
2019-04-14T19:01:28.367Z,8.18
2019-04-14T19:04:03.466Z,8.14
2019-04-14T19:06:38.113Z,8.10
2019-04-14T19:09:15.623Z,8.03
2019-04-14T19:14:23.241Z,7.96
2019-04-14T19:17:00.758Z,7.94
2019-04-14T19:22:02.894Z,7.89
2019-04-14T19:24:36.256Z,7.82
2019-04-14T19:27:12.041Z,7.78
2019-04-14T19:29:46.466Z,7.76
2019-04-14T19:32:20.908Z,7.68
2019-04-14T19:34:52.383Z,7.67
2019-04-14T19:37:24.484Z,7.57
2019-04-14T19:39:55.975Z,7.51
2019-04-14T19:42:28.429Z,7.49
2019-04-14T19:45:00.393Z,7.43
2019-04-14T19:47:37.475Z,7.37
2019-04-14T19:50:10.133Z,7.30
2019-04-14T19:52:41.829Z,7.26
2019-04-14T19:55:20.696Z,7.23
2019-04-14T19:57:51.722Z,7.18
2019-04-14T20:00:23.316Z,7.13
2019-04-14T20:02:56.810Z,7.08
2019-04-14T20:05:28.984Z,7.01
2019-04-14T20:08:00.521Z,6.96
2019-04-14T20:10:32.275Z,6.93
2019-04-14T20:13:03.998Z,6.90
2019-04-14T20:15:49.063Z,6.87
2019-04-14T20:18:38.640Z,6.87
2019-04-14T20:21:28.000Z,6.88
2019-04-14T20:24:18.766Z,6.88
2019-04-14T20:26:55.751Z,6.87
2019-04-14T20:29:37.997Z,6.84
2019-04-14T20:32:19.919Z,6.81
2019-04-14T20:34:52.737Z,6.82
2019-04-14T20:37:26.796Z,6.80
2019-04-14T20:39:58.404Z,6.81
2019-04-14T20:42:31.279Z,6.82
2019-04-14T20:45:04.926Z,6.81
2019-04-14T20:47:36.603Z,6.80
2019-04-14T20:50:08.506Z,6.72
2019-04-14T20:52:41.171Z,6.69
2019-04-14T20:55:12.897Z,6.70
2019-04-14T20:57:45.610Z,6.68
2019-04-14T21:00:20.748Z,6.68
2019-04-14T21:02:58.666Z,6.64
2019-04-14T21:05:47.168Z,6.61
2019-04-14T21:08:39.435Z,6.61
2019-04-14T21:11:15.325Z,6.61
2019-04-14T21:13:51.816Z,6.61
2019-04-14T21:16:25.965Z,6.60
2019-04-14T21:19:02.191Z,6.59
2019-04-14T21:21:45.916Z,6.54
2019-04-14T21:24:35.217Z,6.53
2019-04-14T21:27:14.044Z,6.50
2019-04-14T21:30:00.489Z,6.42
2019-04-14T21:32:34.858Z,6.38
2019-04-14T21:35:11.066Z,6.35
2019-04-14T21:37:53.312Z,6.33
2019-04-14T21:40:26.951Z,6.33
2019-04-14T21:42:56.364Z,6.32
2019-04-14T21:45:27.943Z,6.28
2019-04-14T21:47:59.589Z,6.25
2019-04-14T21:50:33.025Z,6.22
2019-04-14T21:53:06.200Z,6.23
2019-04-14T21:55:37.816Z,6.21
2019-04-14T21:58:11.426Z,6.18
2019-04-14T22:01:09.657Z,6.12
2019-04-14T22:03:47.401Z,6.09
2019-04-14T22:06:20.598Z,6.10
2019-04-14T22:08:56.280Z,6.12
2019-04-14T22:11:29.550Z,6.16
2019-04-14T22:14:01.176Z,6.15
2019-04-14T22:16:32.898Z,6.11
2019-04-14T22:19:04.558Z,6.08
2019-04-14T22:21:49.221Z,6.04
2019-04-14T22:24:19.965Z,6.03
2019-04-14T22:26:51.515Z,6.01
2019-04-14T22:29:25.753Z,5.99
2019-04-14T22:31:57.341Z,6.01
2019-04-14T22:34:31.749Z,6.01
2019-04-14T22:37:03.299Z,5.98
2019-04-14T22:39:35.041Z,5.99
2019-04-14T22:42:06.616Z,5.98
2019-04-14T22:44:40.968Z,5.95
2019-04-14T22:47:12.662Z,5.95
2019-04-14T22:49:44.285Z,5.91
2019-04-14T22:52:18.910Z,5.90
2019-04-14T22:54:52.046Z,5.88
2019-04-14T22:57:25.212Z,5.86
2019-04-14T22:59:56.855Z,5.84
2019-04-14T23:02:42.224Z,5.85
2019-04-14T23:05:27.236Z,5.83
2019-04-14T23:08:19.405Z,5.81
2019-04-14T23:11:01.833Z,5.80
2019-04-14T23:13:40.929Z,5.77
2019-04-14T23:16:26.662Z,5.76
2019-04-14T23:19:08.820Z,5.75
2019-04-14T23:21:44.441Z,5.73
2019-04-14T23:24:17.692Z,5.72
2019-04-14T23:26:52.866Z,5.71
2019-04-14T23:29:25.511Z,5.68
2019-04-14T23:31:57.385Z,5.65
2019-04-14T23:34:29.206Z,5.64
2019-04-14T23:37:00.813Z,5.67
2019-04-14T23:39:32.470Z,5.65
2019-04-14T23:42:04.057Z,5.66
2019-04-14T23:44:35.614Z,5.64
2019-04-14T23:47:07.858Z,5.63
2019-04-14T23:49:39.527Z,5.60
2019-04-14T23:52:13.747Z,5.58
2019-04-14T23:54:45.546Z,5.58
2019-04-14T23:57:17.226Z,5.59
2019-04-14T23:59:48.866Z,5.57
